Tropical Cyclones
[Index]
Main Index Home Page Stock Weather Photos Extreme Storms Discussion Storm News and Storm Chasing Reports Tropical Cyclones / Hurricanes / Typhoons Weather Data and Links Wild Fires / Bushfires Weather Observation Techniques Weather Picture Catalogue Tornado Pictures and Reports Stock Video Footage and DVDs for sale
Season 2002-2003 Tropical Cyclone LUMA Track Map
Season 2002-2003 Summaries (Operational Data): [AU] [SIO] [SPAC] [SH]
<<- Previous TC | 2002-2003 Season | Next TC ->>

click for intensity scale information  Lat/long Grid: Show Hide

 Date Labels: Show Hide

Operational Tropical Cyclone Data

Name: LUMA
Number: 03S2

06 Apr 2003 12:00 UTC to 12 Apr 2003 06:00 UTC

    date/time    lat    long     hPa   cat  kts
2003-04-06 12   25.4    41.5                 13          
2003-04-06 18   24.8    40.9                 13          
2003-04-07 00   24.2    40.5                 13          
2003-04-07 06   23.8    40.4                 18          
2003-04-07 12   23.7    40.4                 18          
2003-04-07 18   23.6    40.6                 18          
2003-04-08 00   23.6    40.8                 18          
2003-04-08 06   24.1    40.3                 22          
2003-04-08 12   24.7    40.2                 22          
2003-04-08 18   25.2    39.8                 26          
2003-04-09 00   25.5    39.3                 26          
2003-04-09 06   25.7    39.3                 26          
2003-04-09 12   25.7    40.1                 26          
2003-04-09 18   25.8    41.2                 31          
2003-04-10 00   27.0    43.0                             
2003-04-10 06   28.1    45.1            2    48          
2003-04-10 12   29.1    46.8     995    1    40          
2003-04-10 18   30.1    49.3     992    1    45          
2003-04-11 00   31.1    52.2     990    2    55          
2003-04-11 06   32.4    55.9     985    3    65          
2003-04-11 12   34.5    59.5     985    3    65          
2003-04-11 18   36.0    64.9     990    2    55          
2003-04-12 00   38.2    70.4     990    2    50          
2003-04-12 06   42.0    76.0    1000                     
Winds are 10-min average.

Tropical cyclone tracks developed by Michael Bath using operational warnings and advisories and Google Maps.


[Australian Severe Weather index] [Copyright Notice] [Email Contacts] [Search This Site] [Privacy Policy]
Document: tropical_cyclone_luma.htm Updated: 2 May 2017